createdAt,value
2017-10-05T00:00:04.357Z,11.2
2017-10-05T00:15:03.891Z,11.2
2017-10-05T00:30:03.148Z,11.2
2017-10-05T00:45:03.130Z,11.2
2017-10-05T01:00:02.908Z,11.2
2017-10-05T01:15:02.812Z,11.2
2017-10-05T01:30:02.777Z,11.2
2017-10-05T01:45:04.207Z,11.1
2017-10-05T02:00:02.941Z,11.1
2017-10-05T02:15:02.808Z,11.1
2017-10-05T02:30:03.654Z,11.1
2017-10-05T02:45:03.806Z,11.1
2017-10-05T03:00:04.012Z,11.1
2017-10-05T03:15:02.915Z,11.1
2017-10-05T03:30:02.865Z,11.1
2017-10-05T03:45:04.520Z,11.1
2017-10-05T04:00:04.245Z,11
2017-10-05T04:15:04.144Z,11
2017-10-05T04:30:03.074Z,11
2017-10-05T04:45:02.941Z,11
2017-10-05T05:00:02.659Z,11
2017-10-05T05:15:03.767Z,11
2017-10-05T05:30:03.917Z,10.9
2017-10-05T05:45:03.819Z,10.9
2017-10-05T06:00:04.126Z,10.9
2017-10-05T06:15:02.957Z,10.9
2017-10-05T06:30:02.760Z,10.9
2017-10-05T06:45:04.078Z,10.9
2017-10-05T07:00:02.971Z,10.9
2017-10-05T07:15:02.901Z,10.9
2017-10-05T07:30:02.811Z,10.9
2017-10-05T07:45:04.216Z,10.9
2017-10-05T08:00:03.125Z,10.9
2017-10-05T08:15:04.076Z,10.9
2017-10-05T08:30:03.017Z,10.9
2017-10-05T08:45:02.981Z,10.9
2017-10-05T09:00:02.898Z,10.9
2017-10-05T09:15:04.216Z,10.9
2017-10-05T09:30:03.909Z,11
2017-10-05T09:45:02.870Z,11
2017-10-05T10:00:04.325Z,11.1
2017-10-05T10:15:03.800Z,11.1
2017-10-05T10:30:04.276Z,11.2
2017-10-05T10:45:03.938Z,11.2
2017-10-05T11:00:03.009Z,11.2
2017-10-05T11:15:02.749Z,11.3
2017-10-05T11:30:03.924Z,11.4
2017-10-05T11:45:04.118Z,11.4
2017-10-05T12:00:03.142Z,11.5
2017-10-05T12:15:02.848Z,11.5
2017-10-05T12:30:02.964Z,11.6
2017-10-05T12:45:03.642Z,11.6
2017-10-05T13:00:02.682Z,11.7
2017-10-05T13:15:04.065Z,11.7
2017-10-05T13:30:02.837Z,11.8
2017-10-05T13:45:02.922Z,11.8
2017-10-05T14:00:04.775Z,11.8
2017-10-05T14:15:03.568Z,11.9
2017-10-05T14:30:03.953Z,11.9
2017-10-05T14:45:04.813Z,11.9
2017-10-05T15:00:04.428Z,12
2017-10-05T15:15:03.701Z,12
2017-10-05T15:30:04.017Z,12
2017-10-05T15:45:02.867Z,12
2017-10-05T16:00:04.052Z,12
2017-10-05T16:15:02.943Z,12
2017-10-05T16:30:03.065Z,12
2017-10-05T16:45:02.911Z,12.1
2017-10-05T17:00:02.799Z,12.1
2017-10-05T17:15:03.726Z,12.1
2017-10-05T17:30:03.826Z,12.1
2017-10-05T17:45:04.206Z,12.1
2017-10-05T18:00:03.223Z,12.1
2017-10-05T18:15:02.927Z,12.1
2017-10-05T18:30:02.868Z,12.1
2017-10-05T18:45:04.393Z,12.1
2017-10-05T19:00:03.947Z,12.1
2017-10-05T19:15:02.725Z,12.1
2017-10-05T19:30:04.179Z,12
2017-10-05T19:45:03.501Z,12
2017-10-05T20:00:03.528Z,12
2017-10-05T20:15:03.579Z,12
2017-10-05T20:30:03.499Z,12
2017-10-05T20:45:03.494Z,12
2017-10-05T21:00:03.444Z,12
2017-10-05T21:15:03.666Z,12
2017-10-05T21:30:03.684Z,12
2017-10-05T21:45:03.451Z,11.9
2017-10-05T22:00:03.507Z,11.9
2017-10-05T22:15:03.553Z,11.9
2017-10-05T22:30:04.193Z,11.9
2017-10-05T22:45:03.786Z,11.9
2017-10-05T23:00:03.972Z,11.9
2017-10-05T23:15:02.708Z,11.9
2017-10-05T23:30:04.549Z,11.8
2017-10-05T23:45:03.932Z,11.8
